sensor_id;sensor_type;location;lat;lon;timestamp;P1;durP1;ratioP1;P2;durP2;ratioP2
56820;SDS011;42702;50.178;20.992;2022-09-23T00:01:25;7.30;;;5.00;;
56820;SDS011;42702;50.178;20.992;2022-09-23T00:03:54;9.90;;;7.10;;
56820;SDS011;42702;50.178;20.992;2022-09-23T00:06:23;9.90;;;6.00;;
56820;SDS011;42702;50.178;20.992;2022-09-23T00:08:52;8.10;;;5.90;;
56820;SDS011;42702;50.178;20.992;2022-09-23T00:11:25;10.70;;;6.70;;
56820;SDS011;42702;50.178;20.992;2022-09-23T00:13:56;9.80;;;7.10;;
56820;SDS011;42702;50.178;20.992;2022-09-23T00:16:28;10.90;;;6.00;;
56820;SDS011;42702;50.178;20.992;2022-09-23T00:19:01;10.30;;;6.10;;
56820;SDS011;42702;50.178;20.992;2022-09-23T00:21:31;9.20;;;6.00;;
56820;SDS011;42702;50.178;20.992;2022-09-23T00:23:59;8.80;;;6.10;;
56820;SDS011;42702;50.178;20.992;2022-09-23T00:26:29;9.70;;;6.30;;
56820;SDS011;42702;50.178;20.992;2022-09-23T00:28:57;9.00;;;6.90;;
56820;SDS011;42702;50.178;20.992;2022-09-23T00:31:25;12.10;;;7.10;;
56820;SDS011;42702;50.178;20.992;2022-09-23T00:33:58;10.30;;;6.50;;
56820;SDS011;42702;50.178;20.992;2022-09-23T00:36:28;8.70;;;6.50;;
56820;SDS011;42702;50.178;20.992;2022-09-23T00:38:58;9.50;;;6.80;;
56820;SDS011;42702;50.178;20.992;2022-09-23T00:41:27;11.70;;;7.00;;
56820;SDS011;42702;50.178;20.992;2022-09-23T00:43:56;10.60;;;6.50;;
56820;SDS011;42702;50.178;20.992;2022-09-23T00:46:33;10.00;;;7.10;;
56820;SDS011;42702;50.178;20.992;2022-09-23T00:49:08;8.60;;;6.30;;
56820;SDS011;42702;50.178;20.992;2022-09-23T00:51:53;9.50;;;6.20;;
56820;SDS011;42702;50.178;20.992;2022-09-23T00:54:25;11.70;;;6.70;;
56820;SDS011;42702;50.178;20.992;2022-09-23T00:56:56;10.50;;;6.10;;
56820;SDS011;42702;50.178;20.992;2022-09-23T00:59:27;12.40;;;7.40;;
56820;SDS011;42702;50.178;20.992;2022-09-23T01:01:56;12.20;;;7.20;;
56820;SDS011;42702;50.178;20.992;2022-09-23T01:04:27;10.00;;;6.90;;
56820;SDS011;42702;50.178;20.992;2022-09-23T01:07:08;10.30;;;7.00;;
56820;SDS011;42702;50.178;20.992;2022-09-23T01:09:36;16.30;;;8.00;;
56820;SDS011;42702;50.178;20.992;2022-09-23T01:17:30;10.90;;;7.00;;
56820;SDS011;42702;50.178;20.992;2022-09-23T01:20:27;9.20;;;6.80;;
56820;SDS011;42702;50.178;20.992;2022-09-23T01:28:46;9.30;;;7.40;;
56820;SDS011;42702;50.178;20.992;2022-09-23T01:31:23;11.80;;;6.80;;
56820;SDS011;42702;50.178;20.992;2022-09-23T01:36:53;9.80;;;7.00;;
56820;SDS011;42702;50.178;20.992;2022-09-23T01:39:37;10.40;;;6.70;;
56820;SDS011;42702;50.178;20.992;2022-09-23T01:47:43;10.40;;;6.90;;
56820;SDS011;42702;50.178;20.992;2022-09-23T01:50:18;11.80;;;7.70;;
56820;SDS011;42702;50.178;20.992;2022-09-23T01:56:18;11.80;;;7.00;;
56820;SDS011;42702;50.178;20.992;2022-09-23T02:01:40;11.10;;;7.50;;
56820;SDS011;42702;50.178;20.992;2022-09-23T02:04:55;9.70;;;7.30;;
56820;SDS011;42702;50.178;20.992;2022-09-23T02:07:23;12.40;;;7.20;;
56820;SDS011;42702;50.178;20.992;2022-09-23T02:10:03;12.20;;;7.90;;
56820;SDS011;42702;50.178;20.992;2022-09-23T02:12:38;11.30;;;7.80;;
56820;SDS011;42702;50.178;20.992;2022-09-23T02:15:18;11.70;;;7.50;;
56820;SDS011;42702;50.178;20.992;2022-09-23T02:17:51;10.40;;;7.70;;
56820;SDS011;42702;50.178;20.992;2022-09-23T02:20:27;10.60;;;6.70;;
56820;SDS011;42702;50.178;20.992;2022-09-23T02:23:10;11.90;;;8.30;;
56820;SDS011;42702;50.178;20.992;2022-09-23T02:25:57;9.60;;;7.90;;
56820;SDS011;42702;50.178;20.992;2022-09-23T02:28:31;10.90;;;7.60;;
56820;SDS011;42702;50.178;20.992;2022-09-23T02:31:40;11.90;;;7.50;;
56820;SDS011;42702;50.178;20.992;2022-09-23T02:45:33;12.20;;;7.30;;
56820;SDS011;42702;50.178;20.992;2022-09-23T02:48:12;10.90;;;7.10;;
56820;SDS011;42702;50.178;20.992;2022-09-23T02:50:46;11.40;;;7.40;;
56820;SDS011;42702;50.178;20.992;2022-09-23T02:53:15;11.40;;;8.90;;
56820;SDS011;42702;50.178;20.992;2022-09-23T02:55:43;13.70;;;8.70;;
56820;SDS011;42702;50.178;20.992;2022-09-23T02:58:12;11.50;;;7.60;;
56820;SDS011;42702;50.178;20.992;2022-09-23T03:03:38;13.30;;;7.00;;
56820;SDS011;42702;50.178;20.992;2022-09-23T03:06:36;11.50;;;7.20;;
56820;SDS011;42702;50.178;20.992;2022-09-23T03:09:24;14.20;;;7.30;;
56820;SDS011;42702;50.178;20.992;2022-09-23T03:12:22;10.20;;;7.10;;
56820;SDS011;42702;50.178;20.992;2022-09-23T03:14:53;13.30;;;8.10;;
56820;SDS011;42702;50.178;20.992;2022-09-23T03:23:09;15.30;;;7.00;;
56820;SDS011;42702;50.178;20.992;2022-09-23T03:25:42;9.90;;;6.80;;
56820;SDS011;42702;50.178;20.992;2022-09-23T03:28:15;14.80;;;7.80;;
56820;SDS011;42702;50.178;20.992;2022-09-23T03:33:17;11.90;;;6.80;;
56820;SDS011;42702;50.178;20.992;2022-09-23T03:36:03;10.60;;;7.00;;
56820;SDS011;42702;50.178;20.992;2022-09-23T03:38:55;11.30;;;7.30;;
56820;SDS011;42702;50.178;20.992;2022-09-23T03:41:31;11.00;;;7.40;;
56820;SDS011;42702;50.178;20.992;2022-09-23T03:44:05;11.70;;;7.70;;
56820;SDS011;42702;50.178;20.992;2022-09-23T03:46:36;13.00;;;8.20;;
56820;SDS011;42702;50.178;20.992;2022-09-23T03:49:17;10.00;;;7.70;;
56820;SDS011;42702;50.178;20.992;2022-09-23T03:51:50;9.90;;;7.00;;
56820;SDS011;42702;50.178;20.992;2022-09-23T03:54:19;12.20;;;7.10;;
56820;SDS011;42702;50.178;20.992;2022-09-23T03:56:47;11.00;;;7.80;;
56820;SDS011;42702;50.178;20.992;2022-09-23T03:59:15;11.60;;;7.30;;
56820;SDS011;42702;50.178;20.992;2022-09-23T04:01:43;12.00;;;8.60;;
56820;SDS011;42702;50.178;20.992;2022-09-23T04:04:12;13.50;;;7.50;;
56820;SDS011;42702;50.178;20.992;2022-09-23T04:06:40;10.60;;;7.20;;
56820;SDS011;42702;50.178;20.992;2022-09-23T04:09:09;11.00;;;8.00;;
56820;SDS011;42702;50.178;20.992;2022-09-23T04:11:37;13.20;;;8.50;;
56820;SDS011;42702;50.178;20.992;2022-09-23T04:14:05;10.40;;;7.40;;
56820;SDS011;42702;50.178;20.992;2022-09-23T04:16:33;12.40;;;7.80;;
56820;SDS011;42702;50.178;20.992;2022-09-23T04:19:02;14.20;;;7.30;;
56820;SDS011;42702;50.178;20.992;2022-09-23T04:21:31;11.20;;;7.50;;
56820;SDS011;42702;50.178;20.992;2022-09-23T04:23:59;12.90;;;7.30;;
56820;SDS011;42702;50.178;20.992;2022-09-23T04:26:28;10.90;;;7.60;;
56820;SDS011;42702;50.178;20.992;2022-09-23T04:28:57;9.50;;;6.70;;
56820;SDS011;42702;50.178;20.992;2022-09-23T04:31:26;14.30;;;7.70;;
56820;SDS011;42702;50.178;20.992;2022-09-23T04:33:55;11.20;;;8.10;;
56820;SDS011;42702;50.178;20.992;2022-09-23T04:36:24;13.90;;;8.30;;
56820;SDS011;42702;50.178;20.992;2022-09-23T04:38:53;11.60;;;7.90;;
56820;SDS011;42702;50.178;20.992;2022-09-23T04:41:21;10.40;;;7.50;;
56820;SDS011;42702;50.178;20.992;2022-09-23T04:43:49;18.90;;;7.70;;
56820;SDS011;42702;50.178;20.992;2022-09-23T04:46:18;13.10;;;7.20;;
56820;SDS011;42702;50.178;20.992;2022-09-23T04:48:46;14.00;;;8.10;;
56820;SDS011;42702;50.178;20.992;2022-09-23T04:51:18;10.70;;;7.70;;
56820;SDS011;42702;50.178;20.992;2022-09-23T04:53:49;10.70;;;7.20;;
56820;SDS011;42702;50.178;20.992;2022-09-23T04:56:20;11.60;;;8.20;;
56820;SDS011;42702;50.178;20.992;2022-09-23T04:58:51;10.80;;;7.90;;
56820;SDS011;42702;50.178;20.992;2022-09-23T05:01:21;17.80;;;8.40;;
56820;SDS011;42702;50.178;20.992;2022-09-23T05:03:57;14.20;;;7.60;;
56820;SDS011;42702;50.178;20.992;2022-09-23T05:06:32;9.50;;;7.40;;
56820;SDS011;42702;50.178;20.992;2022-09-23T05:09:03;13.30;;;8.00;;
56820;SDS011;42702;50.178;20.992;2022-09-23T05:11:33;12.40;;;8.00;;
56820;SDS011;42702;50.178;20.992;2022-09-23T05:14:01;11.60;;;7.80;;
56820;SDS011;42702;50.178;20.992;2022-09-23T05:16:30;16.40;;;8.70;;
56820;SDS011;42702;50.178;20.992;2022-09-23T05:18:58;12.40;;;8.70;;
56820;SDS011;42702;50.178;20.992;2022-09-23T05:21:26;20.50;;;8.90;;
56820;SDS011;42702;50.178;20.992;2022-09-23T05:23:58;14.90;;;9.20;;
56820;SDS011;42702;50.178;20.992;2022-09-23T05:26:28;14.50;;;10.40;;
56820;SDS011;42702;50.178;20.992;2022-09-23T05:28:58;13.90;;;8.90;;
56820;SDS011;42702;50.178;20.992;2022-09-23T05:31:27;14.90;;;9.00;;
56820;SDS011;42702;50.178;20.992;2022-09-23T05:33:58;11.60;;;8.00;;
56820;SDS011;42702;50.178;20.992;2022-09-23T05:36:28;12.70;;;8.50;;
56820;SDS011;42702;50.178;20.992;2022-09-23T05:39:04;16.30;;;9.40;;
56820;SDS011;42702;50.178;20.992;2022-09-23T05:41:34;12.90;;;8.20;;
56820;SDS011;42702;50.178;20.992;2022-09-23T05:44:03;11.30;;;8.60;;
56820;SDS011;42702;50.178;20.992;2022-09-23T05:46:31;11.50;;;7.80;;
56820;SDS011;42702;50.178;20.992;2022-09-23T05:49:00;11.70;;;8.40;;
56820;SDS011;42702;50.178;20.992;2022-09-23T05:51:31;13.30;;;8.70;;
56820;SDS011;42702;50.178;20.992;2022-09-23T05:54:01;13.70;;;9.20;;
56820;SDS011;42702;50.178;20.992;2022-09-23T05:56:32;13.30;;;8.50;;
56820;SDS011;42702;50.178;20.992;2022-09-23T05:59:01;15.50;;;8.10;;
56820;SDS011;42702;50.178;20.992;2022-09-23T06:01:32;10.70;;;7.80;;
56820;SDS011;42702;50.178;20.992;2022-09-23T06:04:03;14.60;;;8.20;;
56820;SDS011;42702;50.178;20.992;2022-09-23T06:06:34;16.00;;;9.10;;
56820;SDS011;42702;50.178;20.992;2022-09-23T06:09:06;12.20;;;8.00;;
56820;SDS011;42702;50.178;20.992;2022-09-23T06:11:36;13.30;;;9.60;;
56820;SDS011;42702;50.178;20.992;2022-09-23T06:14:04;13.60;;;9.20;;
56820;SDS011;42702;50.178;20.992;2022-09-23T06:16:33;13.40;;;9.20;;
56820;SDS011;42702;50.178;20.992;2022-09-23T06:19:02;13.30;;;8.70;;
56820;SDS011;42702;50.178;20.992;2022-09-23T06:21:35;15.40;;;9.00;;
56820;SDS011;42702;50.178;20.992;2022-09-23T06:24:06;13.80;;;8.80;;
56820;SDS011;42702;50.178;20.992;2022-09-23T06:26:35;13.00;;;9.00;;
56820;SDS011;42702;50.178;20.992;2022-09-23T06:29:08;12.90;;;9.70;;
56820;SDS011;42702;50.178;20.992;2022-09-23T06:31:39;13.10;;;9.30;;
56820;SDS011;42702;50.178;20.992;2022-09-23T06:34:09;11.10;;;8.20;;
56820;SDS011;42702;50.178;20.992;2022-09-23T06:36:41;10.90;;;8.10;;
56820;SDS011;42702;50.178;20.992;2022-09-23T06:41:42;11.70;;;8.10;;
56820;SDS011;42702;50.178;20.992;2022-09-23T06:44:12;14.70;;;9.50;;
56820;SDS011;42702;50.178;20.992;2022-09-23T06:46:41;17.20;;;9.50;;
56820;SDS011;42702;50.178;20.992;2022-09-23T06:49:11;16.30;;;9.20;;
56820;SDS011;42702;50.178;20.992;2022-09-23T06:51:40;12.60;;;8.70;;
56820;SDS011;42702;50.178;20.992;2022-09-23T06:54:08;12.00;;;8.20;;
56820;SDS011;42702;50.178;20.992;2022-09-23T06:56:38;18.70;;;9.10;;
56820;SDS011;42702;50.178;20.992;2022-09-23T06:59:08;14.00;;;9.10;;
56820;SDS011;42702;50.178;20.992;2022-09-23T07:01:39;13.90;;;9.50;;
56820;SDS011;42702;50.178;20.992;2022-09-23T07:04:08;12.40;;;7.90;;
56820;SDS011;42702;50.178;20.992;2022-09-23T07:06:37;12.70;;;8.50;;
56820;SDS011;42702;50.178;20.992;2022-09-23T07:09:06;14.00;;;8.90;;
56820;SDS011;42702;50.178;20.992;2022-09-23T07:11:35;15.00;;;8.70;;
56820;SDS011;42702;50.178;20.992;2022-09-23T07:14:04;13.30;;;8.40;;
56820;SDS011;42702;50.178;20.992;2022-09-23T07:16:33;28.20;;;10.30;;
56820;SDS011;42702;50.178;20.992;2022-09-23T07:19:01;13.70;;;8.50;;
56820;SDS011;42702;50.178;20.992;2022-09-23T07:21:29;14.10;;;9.00;;
56820;SDS011;42702;50.178;20.992;2022-09-23T07:23:57;13.40;;;8.70;;
56820;SDS011;42702;50.178;20.992;2022-09-23T07:26:25;13.60;;;8.40;;
56820;SDS011;42702;50.178;20.992;2022-09-23T07:28:54;17.80;;;9.70;;
56820;SDS011;42702;50.178;20.992;2022-09-23T07:31:23;16.90;;;8.60;;
56820;SDS011;42702;50.178;20.992;2022-09-23T07:34:06;20.10;;;10.30;;
56820;SDS011;42702;50.178;20.992;2022-09-23T07:36:39;32.60;;;12.30;;
56820;SDS011;42702;50.178;20.992;2022-09-23T07:39:08;16.30;;;9.40;;
56820;SDS011;42702;50.178;20.992;2022-09-23T07:41:38;17.70;;;9.50;;
56820;SDS011;42702;50.178;20.992;2022-09-23T07:44:11;16.10;;;9.40;;
56820;SDS011;42702;50.178;20.992;2022-09-23T07:46:40;13.70;;;9.80;;
56820;SDS011;42702;50.178;20.992;2022-09-23T07:49:08;13.50;;;9.20;;
56820;SDS011;42702;50.178;20.992;2022-09-23T07:51:38;24.30;;;10.00;;
56820;SDS011;42702;50.178;20.992;2022-09-23T07:54:09;13.40;;;9.10;;
56820;SDS011;42702;50.178;20.992;2022-09-23T07:56:39;15.80;;;8.60;;
56820;SDS011;42702;50.178;20.992;2022-09-23T07:59:12;10.00;;;7.20;;
56820;SDS011;42702;50.178;20.992;2022-09-23T08:01:44;12.90;;;7.70;;
56820;SDS011;42702;50.178;20.992;2022-09-23T08:04:18;11.20;;;6.20;;
56820;SDS011;42702;50.178;20.992;2022-09-23T08:06:58;10.10;;;6.60;;
56820;SDS011;42702;50.178;20.992;2022-09-23T08:09:30;11.20;;;7.60;;
56820;SDS011;42702;50.178;20.992;2022-09-23T08:12:17;13.60;;;8.60;;
56820;SDS011;42702;50.178;20.992;2022-09-23T08:14:47;10.30;;;6.60;;
56820;SDS011;42702;50.178;20.992;2022-09-23T08:17:15;12.30;;;6.40;;
56820;SDS011;42702;50.178;20.992;2022-09-23T08:19:43;12.00;;;6.80;;
56820;SDS011;42702;50.178;20.992;2022-09-23T08:22:11;13.20;;;7.20;;
56820;SDS011;42702;50.178;20.992;2022-09-23T08:24:40;9.60;;;5.80;;
56820;SDS011;42702;50.178;20.992;2022-09-23T08:27:08;10.70;;;6.70;;
56820;SDS011;42702;50.178;20.992;2022-09-23T08:29:37;9.60;;;6.10;;
56820;SDS011;42702;50.178;20.992;2022-09-23T08:32:05;6.80;;;4.60;;
56820;SDS011;42702;50.178;20.992;2022-09-23T08:34:33;11.20;;;5.70;;
56820;SDS011;42702;50.178;20.992;2022-09-23T08:37:02;9.60;;;5.80;;
56820;SDS011;42702;50.178;20.992;2022-09-23T08:39:30;12.30;;;5.80;;
56820;SDS011;42702;50.178;20.992;2022-09-23T08:42:04;7.40;;;5.60;;
56820;SDS011;42702;50.178;20.992;2022-09-23T08:50:17;7.20;;;4.10;;
56820;SDS011;42702;50.178;20.992;2022-09-23T08:55:29;6.40;;;4.60;;
56820;SDS011;42702;50.178;20.992;2022-09-23T09:03:39;3.50;;;2.50;;
56820;SDS011;42702;50.178;20.992;2022-09-23T09:06:14;3.80;;;2.70;;
56820;SDS011;42702;50.178;20.992;2022-09-23T09:09:25;3.90;;;2.90;;
56820;SDS011;42702;50.178;20.992;2022-09-23T09:11:58;3.10;;;2.60;;
56820;SDS011;42702;50.178;20.992;2022-09-23T09:14:42;6.00;;;2.80;;
56820;SDS011;42702;50.178;20.992;2022-09-23T09:25:18;4.60;;;2.70;;
56820;SDS011;42702;50.178;20.992;2022-09-23T09:27:50;4.00;;;2.80;;
56820;SDS011;42702;50.178;20.992;2022-09-23T09:30:19;6.10;;;3.20;;
56820;SDS011;42702;50.178;20.992;2022-09-23T09:32:50;5.40;;;3.50;;
56820;SDS011;42702;50.178;20.992;2022-09-23T09:38:08;7.60;;;4.10;;
56820;SDS011;42702;50.178;20.992;2022-09-23T09:40:38;5.30;;;3.10;;
56820;SDS011;42702;50.178;20.992;2022-09-23T09:43:19;5.60;;;2.90;;
56820;SDS011;42702;50.178;20.992;2022-09-23T09:48:46;4.20;;;2.90;;
56820;SDS011;42702;50.178;20.992;2022-09-23T09:51:22;4.40;;;2.90;;
56820;SDS011;42702;50.178;20.992;2022-09-23T09:53:52;3.60;;;3.20;;
56820;SDS011;42702;50.178;20.992;2022-09-23T09:56:23;4.70;;;3.40;;
56820;SDS011;42702;50.178;20.992;2022-09-23T09:59:08;5.00;;;3.00;;
56820;SDS011;42702;50.178;20.992;2022-09-23T10:01:43;4.20;;;3.20;;
56820;SDS011;42702;50.178;20.992;2022-09-23T10:07:11;4.70;;;3.40;;
56820;SDS011;42702;50.178;20.992;2022-09-23T10:09:48;6.00;;;3.50;;
56820;SDS011;42702;50.178;20.992;2022-09-23T10:12:21;5.00;;;3.60;;
56820;SDS011;42702;50.178;20.992;2022-09-23T10:14:54;5.60;;;3.90;;
56820;SDS011;42702;50.178;20.992;2022-09-23T10:17:29;7.60;;;4.60;;
56820;SDS011;42702;50.178;20.992;2022-09-23T10:20:13;6.50;;;3.80;;
56820;SDS011;42702;50.178;20.992;2022-09-23T10:22:42;4.10;;;2.90;;
56820;SDS011;42702;50.178;20.992;2022-09-23T10:25:21;3.50;;;2.60;;
56820;SDS011;42702;50.178;20.992;2022-09-23T10:27:54;4.70;;;3.10;;
56820;SDS011;42702;50.178;20.992;2022-09-23T10:30:23;5.00;;;3.40;;
56820;SDS011;42702;50.178;20.992;2022-09-23T10:32:54;3.80;;;3.20;;
56820;SDS011;42702;50.178;20.992;2022-09-23T10:35:24;5.30;;;3.40;;
56820;SDS011;42702;50.178;20.992;2022-09-23T10:37:54;5.50;;;3.60;;
56820;SDS011;42702;50.178;20.992;2022-09-23T10:43:17;5.00;;;3.20;;
56820;SDS011;42702;50.178;20.992;2022-09-23T10:48:59;4.90;;;3.70;;
56820;SDS011;42702;50.178;20.992;2022-09-23T10:57:16;4.60;;;2.80;;
56820;SDS011;42702;50.178;20.992;2022-09-23T11:02:50;3.10;;;2.20;;
56820;SDS011;42702;50.178;20.992;2022-09-23T11:13:52;3.60;;;2.60;;
56820;SDS011;42702;50.178;20.992;2022-09-23T11:16:35;4.40;;;2.50;;
56820;SDS011;42702;50.178;20.992;2022-09-23T11:19:49;3.90;;;2.40;;
56820;SDS011;42702;50.178;20.992;2022-09-23T11:33:40;4.50;;;2.30;;
56820;SDS011;42702;50.178;20.992;2022-09-23T11:36:22;3.60;;;2.50;;
56820;SDS011;42702;50.178;20.992;2022-09-23T11:38:51;3.20;;;2.00;;
56820;SDS011;42702;50.178;20.992;2022-09-23T11:41:36;3.70;;;2.30;;
56820;SDS011;42702;50.178;20.992;2022-09-23T11:44:10;3.50;;;2.30;;
56820;SDS011;42702;50.178;20.992;2022-09-23T11:52:41;4.60;;;2.20;;
56820;SDS011;42702;50.178;20.992;2022-09-23T11:55:17;2.90;;;2.20;;
56820;SDS011;42702;50.178;20.992;2022-09-23T11:57:53;2.70;;;2.00;;
56820;SDS011;42702;50.178;20.992;2022-09-23T12:00:28;5.40;;;2.20;;
56820;SDS011;42702;50.178;20.992;2022-09-23T12:05:46;3.10;;;2.40;;
56820;SDS011;42702;50.178;20.992;2022-09-23T12:08:28;3.10;;;2.40;;
56820;SDS011;42702;50.178;20.992;2022-09-23T12:14:21;3.10;;;2.20;;
56820;SDS011;42702;50.178;20.992;2022-09-23T12:17:09;5.50;;;2.20;;
56820;SDS011;42702;50.178;20.992;2022-09-23T12:27:54;4.30;;;2.80;;
56820;SDS011;42702;50.178;20.992;2022-09-23T12:30:31;3.30;;;2.60;;
56820;SDS011;42702;50.178;20.992;2022-09-23T12:33:09;3.80;;;2.70;;
56820;SDS011;42702;50.178;20.992;2022-09-23T12:36:02;4.00;;;2.10;;
56820;SDS011;42702;50.178;20.992;2022-09-23T12:38:49;3.10;;;2.40;;
56820;SDS011;42702;50.178;20.992;2022-09-23T12:41:29;5.00;;;2.60;;
56820;SDS011;42702;50.178;20.992;2022-09-23T12:47:28;3.50;;;1.90;;
56820;SDS011;42702;50.178;20.992;2022-09-23T12:49:41;2.70;;;1.80;;
56820;SDS011;42702;50.178;20.992;2022-09-23T12:54:38;3.10;;;1.80;;
56820;SDS011;42702;50.178;20.992;2022-09-23T13:02:40;1.30;;;1.20;;
56820;SDS011;42702;50.178;20.992;2022-09-23T13:05:46;2.00;;;1.50;;
56820;SDS011;42702;50.178;20.992;2022-09-23T13:08:37;5.00;;;2.80;;
56820;SDS011;42702;50.178;20.992;2022-09-23T13:11:27;6.00;;;1.90;;
56820;SDS011;42702;50.178;20.992;2022-09-23T13:14:01;5.00;;;1.60;;
56820;SDS011;42702;50.178;20.992;2022-09-23T13:16:39;3.10;;;1.40;;
56820;SDS011;42702;50.178;20.992;2022-09-23T13:22:06;2.90;;;1.30;;
56820;SDS011;42702;50.178;20.992;2022-09-23T13:27:18;2.30;;;1.70;;
56820;SDS011;42702;50.178;20.992;2022-09-23T13:30:04;2.10;;;1.70;;
56820;SDS011;42702;50.178;20.992;2022-09-23T13:33:05;1.80;;;1.40;;
56820;SDS011;42702;50.178;20.992;2022-09-23T13:35:40;2.60;;;1.60;;
56820;SDS011;42702;50.178;20.992;2022-09-23T13:38:30;2.40;;;1.60;;
56820;SDS011;42702;50.178;20.992;2022-09-23T13:41:01;2.00;;;1.70;;
56820;SDS011;42702;50.178;20.992;2022-09-23T13:43:35;2.20;;;1.80;;
56820;SDS011;42702;50.178;20.992;2022-09-23T13:46:33;2.50;;;1.50;;
56820;SDS011;42702;50.178;20.992;2022-09-23T13:52:32;2.20;;;1.50;;
56820;SDS011;42702;50.178;20.992;2022-09-23T13:55:01;1.60;;;1.40;;
56820;SDS011;42702;50.178;20.992;2022-09-23T13:57:31;3.00;;;1.60;;
56820;SDS011;42702;50.178;20.992;2022-09-23T14:00:01;3.30;;;1.70;;
56820;SDS011;42702;50.178;20.992;2022-09-23T14:02:42;2.00;;;1.70;;
56820;SDS011;42702;50.178;20.992;2022-09-23T14:05:19;1.90;;;1.50;;
56820;SDS011;42702;50.178;20.992;2022-09-23T14:07:51;1.50;;;1.30;;
56820;SDS011;42702;50.178;20.992;2022-09-23T14:10:22;1.80;;;1.60;;
56820;SDS011;42702;50.178;20.992;2022-09-23T14:12:54;2.10;;;1.50;;
56820;SDS011;42702;50.178;20.992;2022-09-23T14:15:23;2.90;;;1.40;;
56820;SDS011;42702;50.178;20.992;2022-09-23T14:17:53;1.40;;;1.20;;
56820;SDS011;42702;50.178;20.992;2022-09-23T14:20:29;1.90;;;1.40;;
56820;SDS011;42702;50.178;20.992;2022-09-23T14:23:08;1.80;;;1.20;;
56820;SDS011;42702;50.178;20.992;2022-09-23T14:25:39;2.10;;;1.20;;
56820;SDS011;42702;50.178;20.992;2022-09-23T14:28:11;2.60;;;1.30;;
56820;SDS011;42702;50.178;20.992;2022-09-23T14:30:45;1.80;;;1.40;;
56820;SDS011;42702;50.178;20.992;2022-09-23T14:33:15;2.60;;;1.60;;
56820;SDS011;42702;50.178;20.992;2022-09-23T14:35:49;2.60;;;1.60;;
56820;SDS011;42702;50.178;20.992;2022-09-23T14:38:25;2.10;;;1.60;;
56820;SDS011;42702;50.178;20.992;2022-09-23T14:41:18;2.30;;;1.30;;
56820;SDS011;42702;50.178;20.992;2022-09-23T14:46:19;5.10;;;2.30;;
56820;SDS011;42702;50.178;20.992;2022-09-23T14:49:00;1.70;;;1.50;;
56820;SDS011;42702;50.178;20.992;2022-09-23T14:51:34;2.90;;;1.20;;
56820;SDS011;42702;50.178;20.992;2022-09-23T14:59:59;3.10;;;1.70;;
56820;SDS011;42702;50.178;20.992;2022-09-23T15:02:40;5.10;;;1.80;;
56820;SDS011;42702;50.178;20.992;2022-09-23T15:05:18;1.70;;;1.20;;
56820;SDS011;42702;50.178;20.992;2022-09-23T15:07:54;1.70;;;1.30;;
56820;SDS011;42702;50.178;20.992;2022-09-23T15:10:29;2.60;;;1.50;;
56820;SDS011;42702;50.178;20.992;2022-09-23T15:13:04;2.10;;;1.70;;
56820;SDS011;42702;50.178;20.992;2022-09-23T15:15:35;2.50;;;2.10;;
56820;SDS011;42702;50.178;20.992;2022-09-23T15:18:13;2.90;;;2.00;;
56820;SDS011;42702;50.178;20.992;2022-09-23T15:20:53;4.70;;;2.00;;
56820;SDS011;42702;50.178;20.992;2022-09-23T15:23:43;5.10;;;2.10;;
56820;SDS011;42702;50.178;20.992;2022-09-23T15:26:16;3.50;;;2.20;;
56820;SDS011;42702;50.178;20.992;2022-09-23T15:28:45;5.20;;;2.40;;
56820;SDS011;42702;50.178;20.992;2022-09-23T15:31:18;3.50;;;2.00;;
56820;SDS011;42702;50.178;20.992;2022-09-23T15:33:48;4.10;;;1.90;;
56820;SDS011;42702;50.178;20.992;2022-09-23T15:36:17;5.00;;;2.30;;
56820;SDS011;42702;50.178;20.992;2022-09-23T15:38:48;3.50;;;2.30;;
56820;SDS011;42702;50.178;20.992;2022-09-23T15:41:16;3.10;;;2.30;;
56820;SDS011;42702;50.178;20.992;2022-09-23T15:43:45;3.80;;;2.30;;
56820;SDS011;42702;50.178;20.992;2022-09-23T15:46:18;4.50;;;2.20;;
56820;SDS011;42702;50.178;20.992;2022-09-23T15:49:24;5.50;;;2.70;;
56820;SDS011;42702;50.178;20.992;2022-09-23T15:51:49;3.30;;;2.40;;
56820;SDS011;42702;50.178;20.992;2022-09-23T15:54:18;4.30;;;2.70;;
56820;SDS011;42702;50.178;20.992;2022-09-23T15:56:46;4.10;;;2.40;;
56820;SDS011;42702;50.178;20.992;2022-09-23T15:59:15;4.80;;;2.30;;
56820;SDS011;42702;50.178;20.992;2022-09-23T16:01:43;2.90;;;2.40;;
56820;SDS011;42702;50.178;20.992;2022-09-23T16:04:12;5.10;;;2.50;;
56820;SDS011;42702;50.178;20.992;2022-09-23T16:06:42;6.20;;;3.00;;
56820;SDS011;42702;50.178;20.992;2022-09-23T16:09:15;5.10;;;2.70;;
56820;SDS011;42702;50.178;20.992;2022-09-23T16:11:43;3.50;;;2.90;;
56820;SDS011;42702;50.178;20.992;2022-09-23T16:14:14;5.10;;;2.60;;
56820;SDS011;42702;50.178;20.992;2022-09-23T16:16:44;3.80;;;2.90;;
56820;SDS011;42702;50.178;20.992;2022-09-23T16:19:14;8.30;;;3.10;;
56820;SDS011;42702;50.178;20.992;2022-09-23T16:21:44;6.90;;;3.40;;
56820;SDS011;42702;50.178;20.992;2022-09-23T16:24:15;6.00;;;2.90;;
56820;SDS011;42702;50.178;20.992;2022-09-23T16:26:46;5.70;;;3.60;;
56820;SDS011;42702;50.178;20.992;2022-09-23T16:29:15;6.10;;;3.40;;
56820;SDS011;42702;50.178;20.992;2022-09-23T16:31:43;5.50;;;4.10;;
56820;SDS011;42702;50.178;20.992;2022-09-23T16:34:11;5.40;;;4.00;;
56820;SDS011;42702;50.178;20.992;2022-09-23T16:36:39;9.20;;;4.60;;
56820;SDS011;42702;50.178;20.992;2022-09-23T16:39:10;7.00;;;5.20;;
56820;SDS011;42702;50.178;20.992;2022-09-23T16:41:41;9.30;;;6.40;;
56820;SDS011;42702;50.178;20.992;2022-09-23T16:46:40;15.30;;;9.20;;
56820;SDS011;42702;50.178;20.992;2022-09-23T16:49:09;19.90;;;11.50;;
56820;SDS011;42702;50.178;20.992;2022-09-23T16:51:41;20.30;;;12.00;;
56820;SDS011;42702;50.178;20.992;2022-09-23T16:54:10;25.60;;;13.80;;
56820;SDS011;42702;50.178;20.992;2022-09-23T16:56:40;25.10;;;15.70;;
56820;SDS011;42702;50.178;20.992;2022-09-23T16:59:13;26.30;;;16.60;;
56820;SDS011;42702;50.178;20.992;2022-09-23T17:01:42;31.20;;;20.60;;
56820;SDS011;42702;50.178;20.992;2022-09-23T17:04:30;36.60;;;22.20;;
56820;SDS011;42702;50.178;20.992;2022-09-23T17:06:58;40.00;;;25.20;;
56820;SDS011;42702;50.178;20.992;2022-09-23T17:09:27;41.40;;;25.10;;
56820;SDS011;42702;50.178;20.992;2022-09-23T17:11:59;35.00;;;22.30;;
56820;SDS011;42702;50.178;20.992;2022-09-23T17:14:38;32.60;;;21.90;;
56820;SDS011;42702;50.178;20.992;2022-09-23T17:17:06;35.00;;;21.60;;
56820;SDS011;42702;50.178;20.992;2022-09-23T17:19:36;35.00;;;21.40;;
56820;SDS011;42702;50.178;20.992;2022-09-23T17:22:04;39.70;;;22.70;;
56820;SDS011;42702;50.178;20.992;2022-09-23T17:24:32;36.80;;;20.00;;
56820;SDS011;42702;50.178;20.992;2022-09-23T17:27:00;31.80;;;18.70;;
56820;SDS011;42702;50.178;20.992;2022-09-23T17:29:29;29.80;;;16.00;;
56820;SDS011;42702;50.178;20.992;2022-09-23T17:31:58;27.40;;;15.80;;
56820;SDS011;42702;50.178;20.992;2022-09-23T17:34:26;29.10;;;18.00;;
56820;SDS011;42702;50.178;20.992;2022-09-23T17:36:55;44.80;;;23.20;;
56820;SDS011;42702;50.178;20.992;2022-09-23T17:39:23;60.90;;;30.40;;
56820;SDS011;42702;50.178;20.992;2022-09-23T17:41:51;50.70;;;26.40;;
56820;SDS011;42702;50.178;20.992;2022-09-23T17:44:22;40.40;;;23.60;;
56820;SDS011;42702;50.178;20.992;2022-09-23T17:46:51;49.80;;;23.40;;
56820;SDS011;42702;50.178;20.992;2022-09-23T17:49:19;54.90;;;27.70;;